sensor_id;sensor_type;location;lat;lon;timestamp;temperature;humidity
13256;DHT22;37913;48.370;10.930;2023-05-10T00:02:17;12.70;99.90
13256;DHT22;37913;48.370;10.930;2023-05-10T00:04:44;12.70;99.90
13256;DHT22;37913;48.370;10.930;2023-05-10T00:07:11;12.70;99.90
13256;DHT22;37913;48.370;10.930;2023-05-10T00:09:39;12.70;99.90
13256;DHT22;37913;48.370;10.930;2023-05-10T00:12:06;12.70;99.90
13256;DHT22;37913;48.370;10.930;2023-05-10T00:14:33;12.70;99.90
13256;DHT22;37913;48.370;10.930;2023-05-10T00:17:01;12.60;99.90
13256;DHT22;37913;48.370;10.930;2023-05-10T00:19:28;12.60;99.90
13256;DHT22;37913;48.370;10.930;2023-05-10T00:21:54;12.60;99.90
13256;DHT22;37913;48.370;10.930;2023-05-10T00:24:21;12.50;99.90
13256;DHT22;37913;48.370;10.930;2023-05-10T00:26:50;12.60;99.90
13256;DHT22;37913;48.370;10.930;2023-05-10T00:29:16;12.50;99.90
13256;DHT22;37913;48.370;10.930;2023-05-10T00:31:44;12.50;99.90
13256;DHT22;37913;48.370;10.930;2023-05-10T00:34:10;12.60;99.90
13256;DHT22;37913;48.370;10.930;2023-05-10T00:36:37;12.60;99.90
13256;DHT22;37913;48.370;10.930;2023-05-10T00:39:04;12.50;99.90
13256;DHT22;37913;48.370;10.930;2023-05-10T00:41:31;12.50;99.90
13256;DHT22;37913;48.370;10.930;2023-05-10T00:44:04;12.50;99.90
13256;DHT22;37913;48.370;10.930;2023-05-10T00:46:31;12.50;99.90
13256;DHT22;37913;48.370;10.930;2023-05-10T00:48:58;12.50;99.90
13256;DHT22;37913;48.370;10.930;2023-05-10T00:51:25;12.50;99.90
13256;DHT22;37913;48.370;10.930;2023-05-10T00:53:52;12.50;99.90
13256;DHT22;37913;48.370;10.930;2023-05-10T00:56:20;12.50;99.90
13256;DHT22;37913;48.370;10.930;2023-05-10T00:58:48;12.40;99.90
13256;DHT22;37913;48.370;10.930;2023-05-10T01:01:17;12.40;99.90
13256;DHT22;37913;48.370;10.930;2023-05-10T01:03:44;12.40;99.90
13256;DHT22;37913;48.370;10.930;2023-05-10T01:06:12;12.40;99.90
13256;DHT22;37913;48.370;10.930;2023-05-10T01:08:39;12.40;99.90
13256;DHT22;37913;48.370;10.930;2023-05-10T01:11:06;12.40;99.90
13256;DHT22;37913;48.370;10.930;2023-05-10T01:13:35;12.40;99.90
13256;DHT22;37913;48.370;10.930;2023-05-10T01:16:03;12.40;99.90
13256;DHT22;37913;48.370;10.930;2023-05-10T01:18:36;12.40;99.90
13256;DHT22;37913;48.370;10.930;2023-05-10T01:21:14;12.40;99.90
13256;DHT22;37913;48.370;10.930;2023-05-10T01:27:17;12.40;99.90
13256;DHT22;37913;48.370;10.930;2023-05-10T01:32:55;12.30;99.90
13256;DHT22;37913;48.370;10.930;2023-05-10T01:35:30;12.30;99.90
13256;DHT22;37913;48.370;10.930;2023-05-10T01:38:04;12.30;99.90
13256;DHT22;37913;48.370;10.930;2023-05-10T01:40:39;12.30;99.90
13256;DHT22;37913;48.370;10.930;2023-05-10T01:43:11;12.20;99.90
13256;DHT22;37913;48.370;10.930;2023-05-10T01:45:44;12.20;99.90
13256;DHT22;37913;48.370;10.930;2023-05-10T01:48:15;12.20;99.90
13256;DHT22;37913;48.370;10.930;2023-05-10T01:50:44;12.20;99.90
13256;DHT22;37913;48.370;10.930;2023-05-10T01:53:13;12.20;99.90
13256;DHT22;37913;48.370;10.930;2023-05-10T01:55:52;12.20;99.90
13256;DHT22;37913;48.370;10.930;2023-05-10T01:58:24;12.20;99.90
13256;DHT22;37913;48.370;10.930;2023-05-10T02:00:52;12.10;99.90
13256;DHT22;37913;48.370;10.930;2023-05-10T02:03:24;12.10;99.90
13256;DHT22;37913;48.370;10.930;2023-05-10T02:05:52;12.10;99.90
13256;DHT22;37913;48.370;10.930;2023-05-10T02:08:21;12.10;99.90
13256;DHT22;37913;48.370;10.930;2023-05-10T02:10:50;12.10;99.90
13256;DHT22;37913;48.370;10.930;2023-05-10T02:13:18;12.10;99.90
13256;DHT22;37913;48.370;10.930;2023-05-10T02:15:47;12.10;99.90
13256;DHT22;37913;48.370;10.930;2023-05-10T02:18:15;12.10;99.90
13256;DHT22;37913;48.370;10.930;2023-05-10T02:20:45;12.10;99.90
13256;DHT22;37913;48.370;10.930;2023-05-10T02:23:13;12.10;99.90
13256;DHT22;37913;48.370;10.930;2023-05-10T02:25:41;12.10;99.90
13256;DHT22;37913;48.370;10.930;2023-05-10T02:28:10;12.10;99.90
13256;DHT22;37913;48.370;10.930;2023-05-10T02:30:39;12.10;99.90
13256;DHT22;37913;48.370;10.930;2023-05-10T02:33:06;12.10;99.90
13256;DHT22;37913;48.370;10.930;2023-05-10T02:35:34;12.10;99.90
13256;DHT22;37913;48.370;10.930;2023-05-10T02:38:04;12.00;99.90
13256;DHT22;37913;48.370;10.930;2023-05-10T02:40:32;12.10;99.90
13256;DHT22;37913;48.370;10.930;2023-05-10T02:43:01;12.00;99.90
13256;DHT22;37913;48.370;10.930;2023-05-10T02:45:31;12.00;99.90
13256;DHT22;37913;48.370;10.930;2023-05-10T02:47:59;12.00;99.90
13256;DHT22;37913;48.370;10.930;2023-05-10T02:50:28;12.00;99.90
13256;DHT22;37913;48.370;10.930;2023-05-10T02:53:00;12.00;99.90
13256;DHT22;37913;48.370;10.930;2023-05-10T02:55:33;12.00;99.90
13256;DHT22;37913;48.370;10.930;2023-05-10T02:58:02;12.00;99.90
13256;DHT22;37913;48.370;10.930;2023-05-10T03:00:29;12.00;99.90
13256;DHT22;37913;48.370;10.930;2023-05-10T03:02:57;12.00;99.90
13256;DHT22;37913;48.370;10.930;2023-05-10T03:05:24;12.00;99.90
13256;DHT22;37913;48.370;10.930;2023-05-10T03:07:52;12.00;99.90
13256;DHT22;37913;48.370;10.930;2023-05-10T03:10:20;12.00;99.90
13256;DHT22;37913;48.370;10.930;2023-05-10T03:13:01;12.00;99.90
13256;DHT22;37913;48.370;10.930;2023-05-10T03:15:42;12.00;99.90
13256;DHT22;37913;48.370;10.930;2023-05-10T03:18:17;12.00;99.90
13256;DHT22;37913;48.370;10.930;2023-05-10T03:20:47;12.00;99.90
13256;DHT22;37913;48.370;10.930;2023-05-10T03:23:21;12.00;99.90
13256;DHT22;37913;48.370;10.930;2023-05-10T03:25:50;12.00;99.90
13256;DHT22;37913;48.370;10.930;2023-05-10T03:28:20;12.00;99.90
13256;DHT22;37913;48.370;10.930;2023-05-10T03:30:47;12.00;99.90
13256;DHT22;37913;48.370;10.930;2023-05-10T03:33:16;12.00;99.90
13256;DHT22;37913;48.370;10.930;2023-05-10T03:35:44;12.00;99.90
13256;DHT22;37913;48.370;10.930;2023-05-10T03:38:11;12.00;99.90
13256;DHT22;37913;48.370;10.930;2023-05-10T03:40:38;12.00;99.90
13256;DHT22;37913;48.370;10.930;2023-05-10T03:43:06;12.00;99.90
13256;DHT22;37913;48.370;10.930;2023-05-10T03:45:34;12.10;99.90
13256;DHT22;37913;48.370;10.930;2023-05-10T03:48:01;12.00;99.90
13256;DHT22;37913;48.370;10.930;2023-05-10T03:50:28;12.00;99.90
13256;DHT22;37913;48.370;10.930;2023-05-10T03:52:55;12.00;99.90
13256;DHT22;37913;48.370;10.930;2023-05-10T03:55:22;12.00;99.90
13256;DHT22;37913;48.370;10.930;2023-05-10T03:57:49;12.00;99.90
13256;DHT22;37913;48.370;10.930;2023-05-10T04:00:17;12.00;99.90
13256;DHT22;37913;48.370;10.930;2023-05-10T04:02:45;12.00;99.90
13256;DHT22;37913;48.370;10.930;2023-05-10T04:05:12;12.00;99.90
13256;DHT22;37913;48.370;10.930;2023-05-10T04:07:39;11.90;99.90
13256;DHT22;37913;48.370;10.930;2023-05-10T04:10:07;11.90;99.90
13256;DHT22;37913;48.370;10.930;2023-05-10T04:12:34;11.80;99.90
13256;DHT22;37913;48.370;10.930;2023-05-10T04:15:01;11.80;99.90
13256;DHT22;37913;48.370;10.930;2023-05-10T04:17:27;11.80;99.90
13256;DHT22;37913;48.370;10.930;2023-05-10T04:19:56;11.70;99.90
13256;DHT22;37913;48.370;10.930;2023-05-10T04:22:23;11.70;99.90
13256;DHT22;37913;48.370;10.930;2023-05-10T04:24:50;11.70;99.90
13256;DHT22;37913;48.370;10.930;2023-05-10T04:27:16;11.70;99.90
13256;DHT22;37913;48.370;10.930;2023-05-10T04:29:43;11.70;99.90
13256;DHT22;37913;48.370;10.930;2023-05-10T04:32:10;11.80;99.90
13256;DHT22;37913;48.370;10.930;2023-05-10T04:34:37;11.80;99.90
13256;DHT22;37913;48.370;10.930;2023-05-10T04:37:06;11.80;99.90
13256;DHT22;37913;48.370;10.930;2023-05-10T04:39:34;11.70;99.90
13256;DHT22;37913;48.370;10.930;2023-05-10T04:42:01;11.70;99.90
13256;DHT22;37913;48.370;10.930;2023-05-10T04:44:31;11.70;99.90
13256;DHT22;37913;48.370;10.930;2023-05-10T04:46:58;11.80;99.90
13256;DHT22;37913;48.370;10.930;2023-05-10T04:49:25;11.80;99.90
13256;DHT22;37913;48.370;10.930;2023-05-10T04:51:52;11.90;99.90
13256;DHT22;37913;48.370;10.930;2023-05-10T04:54:20;11.90;99.90
13256;DHT22;37913;48.370;10.930;2023-05-10T04:56:47;12.00;99.90
13256;DHT22;37913;48.370;10.930;2023-05-10T04:59:16;12.00;99.90
13256;DHT22;37913;48.370;10.930;2023-05-10T05:01:44;12.00;99.90
13256;DHT22;37913;48.370;10.930;2023-05-10T05:04:11;12.10;99.90
13256;DHT22;37913;48.370;10.930;2023-05-10T05:06:38;12.10;99.90
13256;DHT22;37913;48.370;10.930;2023-05-10T05:09:04;12.00;99.90
13256;DHT22;37913;48.370;10.930;2023-05-10T05:11:33;12.00;99.90
13256;DHT22;37913;48.370;10.930;2023-05-10T05:14:00;11.90;99.90
13256;DHT22;37913;48.370;10.930;2023-05-10T05:16:27;11.90;99.90
13256;DHT22;37913;48.370;10.930;2023-05-10T05:18:54;11.90;99.90
13256;DHT22;37913;48.370;10.930;2023-05-10T05:21:21;11.90;99.90
13256;DHT22;37913;48.370;10.930;2023-05-10T05:23:48;11.90;99.90
13256;DHT22;37913;48.370;10.930;2023-05-10T05:26:15;11.90;99.90
13256;DHT22;37913;48.370;10.930;2023-05-10T05:28:43;12.10;99.90
13256;DHT22;37913;48.370;10.930;2023-05-10T05:31:10;12.10;99.90
13256;DHT22;37913;48.370;10.930;2023-05-10T05:33:37;12.20;99.90
13256;DHT22;37913;48.370;10.930;2023-05-10T05:36:05;12.20;99.90
13256;DHT22;37913;48.370;10.930;2023-05-10T05:38:32;12.30;99.90
13256;DHT22;37913;48.370;10.930;2023-05-10T05:40:59;12.30;99.90
13256;DHT22;37913;48.370;10.930;2023-05-10T05:43:27;12.40;99.90
13256;DHT22;37913;48.370;10.930;2023-05-10T05:45:55;12.40;99.90
13256;DHT22;37913;48.370;10.930;2023-05-10T05:48:23;12.50;99.90
13256;DHT22;37913;48.370;10.930;2023-05-10T05:50:53;12.30;99.90
13256;DHT22;37913;48.370;10.930;2023-05-10T05:53:20;12.30;99.90
13256;DHT22;37913;48.370;10.930;2023-05-10T05:55:54;12.60;99.90
13256;DHT22;37913;48.370;10.930;2023-05-10T05:58:21;12.60;99.90
13256;DHT22;37913;48.370;10.930;2023-05-10T06:00:48;12.60;99.90
13256;DHT22;37913;48.370;10.930;2023-05-10T06:03:17;12.60;99.90
13256;DHT22;37913;48.370;10.930;2023-05-10T06:05:43;12.70;99.90
13256;DHT22;37913;48.370;10.930;2023-05-10T06:08:10;12.80;99.90
13256;DHT22;37913;48.370;10.930;2023-05-10T06:10:37;12.80;99.90
13256;DHT22;37913;48.370;10.930;2023-05-10T06:13:04;12.90;99.90
13256;DHT22;37913;48.370;10.930;2023-05-10T06:15:31;12.90;99.90
13256;DHT22;37913;48.370;10.930;2023-05-10T06:17:59;12.80;99.90
13256;DHT22;37913;48.370;10.930;2023-05-10T06:20:27;12.70;99.90
13256;DHT22;37913;48.370;10.930;2023-05-10T06:22:54;12.60;99.90
13256;DHT22;37913;48.370;10.930;2023-05-10T06:25:21;12.60;99.90
13256;DHT22;37913;48.370;10.930;2023-05-10T06:27:48;12.80;99.90
13256;DHT22;37913;48.370;10.930;2023-05-10T06:30:15;12.80;99.90
13256;DHT22;37913;48.370;10.930;2023-05-10T06:32:42;12.60;99.90
13256;DHT22;37913;48.370;10.930;2023-05-10T06:35:10;12.90;99.90
13256;DHT22;37913;48.370;10.930;2023-05-10T06:37:39;12.60;99.90
13256;DHT22;37913;48.370;10.930;2023-05-10T06:40:07;12.70;99.90
13256;DHT22;37913;48.370;10.930;2023-05-10T06:42:34;13.00;99.90
13256;DHT22;37913;48.370;10.930;2023-05-10T06:45:01;13.00;99.90
13256;DHT22;37913;48.370;10.930;2023-05-10T06:47:28;13.20;99.90
13256;DHT22;37913;48.370;10.930;2023-05-10T06:49:55;13.40;99.90
13256;DHT22;37913;48.370;10.930;2023-05-10T06:52:22;13.70;99.90
13256;DHT22;37913;48.370;10.930;2023-05-10T06:54:51;13.90;99.90
13256;DHT22;37913;48.370;10.930;2023-05-10T06:57:18;13.90;99.90
13256;DHT22;37913;48.370;10.930;2023-05-10T06:59:46;14.30;99.90
13256;DHT22;37913;48.370;10.930;2023-05-10T07:02:13;15.00;99.90
13256;DHT22;37913;48.370;10.930;2023-05-10T07:04:41;15.10;99.90
13256;DHT22;37913;48.370;10.930;2023-05-10T07:07:10;14.70;99.90
13256;DHT22;37913;48.370;10.930;2023-05-10T07:09:37;15.00;99.90
13256;DHT22;37913;48.370;10.930;2023-05-10T07:12:06;15.40;99.90
13256;DHT22;37913;48.370;10.930;2023-05-10T07:14:32;15.30;99.90
13256;DHT22;37913;48.370;10.930;2023-05-10T07:16:59;15.70;99.90
13256;DHT22;37913;48.370;10.930;2023-05-10T07:19:26;15.70;99.90
13256;DHT22;37913;48.370;10.930;2023-05-10T07:21:54;16.40;99.90
13256;DHT22;37913;48.370;10.930;2023-05-10T07:24:21;16.40;99.90
13256;DHT22;37913;48.370;10.930;2023-05-10T07:26:48;17.30;99.90
13256;DHT22;37913;48.370;10.930;2023-05-10T07:29:17;17.90;99.90
13256;DHT22;37913;48.370;10.930;2023-05-10T07:31:44;17.90;99.90
13256;DHT22;37913;48.370;10.930;2023-05-10T07:34:11;17.00;99.90
13256;DHT22;37913;48.370;10.930;2023-05-10T07:36:38;16.40;99.90
13256;DHT22;37913;48.370;10.930;2023-05-10T07:39:05;16.80;99.90
13256;DHT22;37913;48.370;10.930;2023-05-10T07:41:34;16.70;99.90
13256;DHT22;37913;48.370;10.930;2023-05-10T07:44:03;16.70;99.90
13256;DHT22;37913;48.370;10.930;2023-05-10T07:46:31;17.30;99.90
13256;DHT22;37913;48.370;10.930;2023-05-10T07:48:58;17.50;99.90
13256;DHT22;37913;48.370;10.930;2023-05-10T07:51:25;18.10;99.90
13256;DHT22;37913;48.370;10.930;2023-05-10T07:53:53;18.50;99.90
13256;DHT22;37913;48.370;10.930;2023-05-10T07:56:22;19.00;99.90
13256;DHT22;37913;48.370;10.930;2023-05-10T07:58:50;19.40;99.90
13256;DHT22;37913;48.370;10.930;2023-05-10T08:01:18;19.30;99.90
13256;DHT22;37913;48.370;10.930;2023-05-10T08:03:46;19.50;99.90
13256;DHT22;37913;48.370;10.930;2023-05-10T08:06:14;19.10;99.90
13256;DHT22;37913;48.370;10.930;2023-05-10T08:08:41;18.80;99.90
13256;DHT22;37913;48.370;10.930;2023-05-10T08:11:09;17.90;99.90
13256;DHT22;37913;48.370;10.930;2023-05-10T08:13:35;18.20;99.90
13256;DHT22;37913;48.370;10.930;2023-05-10T08:16:02;18.60;99.90
13256;DHT22;37913;48.370;10.930;2023-05-10T08:18:29;19.20;99.90
13256;DHT22;37913;48.370;10.930;2023-05-10T08:20:58;19.50;99.90
13256;DHT22;37913;48.370;10.930;2023-05-10T08:23:24;19.80;99.90
13256;DHT22;37913;48.370;10.930;2023-05-10T08:25:51;19.80;99.90
13256;DHT22;37913;48.370;10.930;2023-05-10T08:28:18;19.90;99.90
13256;DHT22;37913;48.370;10.930;2023-05-10T08:30:45;20.70;99.90
13256;DHT22;37913;48.370;10.930;2023-05-10T08:33:12;21.50;99.90
13256;DHT22;37913;48.370;10.930;2023-05-10T08:35:39;21.50;99.90
13256;DHT22;37913;48.370;10.930;2023-05-10T08:38:08;21.20;99.90
13256;DHT22;37913;48.370;10.930;2023-05-10T08:40:37;21.00;99.90
13256;DHT22;37913;48.370;10.930;2023-05-10T08:43:06;20.60;99.90
13256;DHT22;37913;48.370;10.930;2023-05-10T08:45:36;19.20;99.90
13256;DHT22;37913;48.370;10.930;2023-05-10T08:48:05;18.70;99.90
13256;DHT22;37913;48.370;10.930;2023-05-10T08:50:35;18.40;99.90
13256;DHT22;37913;48.370;10.930;2023-05-10T08:53:05;17.70;99.90
13256;DHT22;37913;48.370;10.930;2023-05-10T08:55:34;17.60;99.90
13256;DHT22;37913;48.370;10.930;2023-05-10T08:58:02;17.40;99.90
13256;DHT22;37913;48.370;10.930;2023-05-10T09:00:30;17.50;99.90
13256;DHT22;37913;48.370;10.930;2023-05-10T09:02:57;17.60;99.90
13256;DHT22;37913;48.370;10.930;2023-05-10T09:05:25;18.00;99.90
13256;DHT22;37913;48.370;10.930;2023-05-10T09:07:52;18.50;99.90
13256;DHT22;37913;48.370;10.930;2023-05-10T09:10:19;19.50;99.90
13256;DHT22;37913;48.370;10.930;2023-05-10T09:12:50;20.20;99.90
13256;DHT22;37913;48.370;10.930;2023-05-10T09:15:17;20.40;99.90
13256;DHT22;37913;48.370;10.930;2023-05-10T09:17:46;20.20;99.90
13256;DHT22;37913;48.370;10.930;2023-05-10T09:20:13;20.30;99.90
13256;DHT22;37913;48.370;10.930;2023-05-10T09:22:40;20.20;99.90
13256;DHT22;37913;48.370;10.930;2023-05-10T09:25:09;19.70;99.90
13256;DHT22;37913;48.370;10.930;2023-05-10T09:27:37;19.30;99.90
13256;DHT22;37913;48.370;10.930;2023-05-10T09:30:08;18.60;99.90
13256;DHT22;37913;48.370;10.930;2023-05-10T09:32:37;18.20;99.90
13256;DHT22;37913;48.370;10.930;2023-05-10T09:35:08;18.30;99.90
13256;DHT22;37913;48.370;10.930;2023-05-10T09:37:35;19.00;99.90
13256;DHT22;37913;48.370;10.930;2023-05-10T09:40:05;20.60;99.90
13256;DHT22;37913;48.370;10.930;2023-05-10T09:42:33;21.80;99.90
13256;DHT22;37913;48.370;10.930;2023-05-10T09:45:02;21.90;99.90
13256;DHT22;37913;48.370;10.930;2023-05-10T09:47:31;21.00;99.90
13256;DHT22;37913;48.370;10.930;2023-05-10T09:49:58;19.60;99.90
13256;DHT22;37913;48.370;10.930;2023-05-10T09:52:29;18.90;99.90
13256;DHT22;37913;48.370;10.930;2023-05-10T09:54:56;18.20;99.90
13256;DHT22;37913;48.370;10.930;2023-05-10T09:57:24;17.70;99.90
13256;DHT22;37913;48.370;10.930;2023-05-10T09:59:52;16.90;99.90
13256;DHT22;37913;48.370;10.930;2023-05-10T10:02:19;16.60;99.90
13256;DHT22;37913;48.370;10.930;2023-05-10T10:04:50;16.20;99.90
13256;DHT22;37913;48.370;10.930;2023-05-10T10:07:22;16.10;99.90
13256;DHT22;37913;48.370;10.930;2023-05-10T10:09:51;15.90;99.90
13256;DHT22;37913;48.370;10.930;2023-05-10T10:12:19;15.90;99.90
13256;DHT22;37913;48.370;10.930;2023-05-10T10:14:47;16.20;99.90
13256;DHT22;37913;48.370;10.930;2023-05-10T10:17:16;16.40;99.90
13256;DHT22;37913;48.370;10.930;2023-05-10T10:19:43;16.20;99.90
13256;DHT22;37913;48.370;10.930;2023-05-10T10:22:13;16.20;99.90
13256;DHT22;37913;48.370;10.930;2023-05-10T10:24:41;16.00;99.90
13256;DHT22;37913;48.370;10.930;2023-05-10T10:27:15;15.80;99.90
13256;DHT22;37913;48.370;10.930;2023-05-10T10:29:52;16.30;99.90
13256;DHT22;37913;48.370;10.930;2023-05-10T10:32:29;16.70;99.90
13256;DHT22;37913;48.370;10.930;2023-05-10T10:34:58;17.10;99.90
13256;DHT22;37913;48.370;10.930;2023-05-10T10:37:45;18.00;99.90
13256;DHT22;37913;48.370;10.930;2023-05-10T10:40:28;18.70;99.90
13256;DHT22;37913;48.370;10.930;2023-05-10T10:42:57;19.10;99.90
13256;DHT22;37913;48.370;10.930;2023-05-10T10:45:25;18.90;99.90
13256;DHT22;37913;48.370;10.930;2023-05-10T10:48:22;19.10;99.90
13256;DHT22;37913;48.370;10.930;2023-05-10T10:50:56;19.30;99.90
13256;DHT22;37913;48.370;10.930;2023-05-10T10:53:27;19.60;99.90
13256;DHT22;37913;48.370;10.930;2023-05-10T10:56:05;19.50;99.90
13256;DHT22;37913;48.370;10.930;2023-05-10T10:58:33;19.40;99.90
13256;DHT22;37913;48.370;10.930;2023-05-10T11:01:14;19.20;99.90
13256;DHT22;37913;48.370;10.930;2023-05-10T11:06:37;17.90;99.90
13256;DHT22;37913;48.370;10.930;2023-05-10T11:09:09;17.80;99.90
13256;DHT22;37913;48.370;10.930;2023-05-10T11:11:48;17.90;99.90
13256;DHT22;37913;48.370;10.930;2023-05-10T11:14:19;18.10;99.90
13256;DHT22;37913;48.370;10.930;2023-05-10T11:16:47;18.40;99.90
13256;DHT22;37913;48.370;10.930;2023-05-10T11:19:15;18.60;99.90
13256;DHT22;37913;48.370;10.930;2023-05-10T11:21:47;18.80;99.90
13256;DHT22;37913;48.370;10.930;2023-05-10T11:24:18;19.10;99.90
13256;DHT22;37913;48.370;10.930;2023-05-10T11:26:45;19.50;99.90
13256;DHT22;37913;48.370;10.930;2023-05-10T11:29:13;19.50;99.90
13256;DHT22;37913;48.370;10.930;2023-05-10T11:31:43;19.30;99.90
13256;DHT22;37913;48.370;10.930;2023-05-10T11:34:15;19.50;99.90
13256;DHT22;37913;48.370;10.930;2023-05-10T11:36:51;19.30;99.90
13256;DHT22;37913;48.370;10.930;2023-05-10T11:39:21;19.10;99.90
13256;DHT22;37913;48.370;10.930;2023-05-10T11:41:48;19.00;99.90
13256;DHT22;37913;48.370;10.930;2023-05-10T11:44:15;19.30;99.90
13256;DHT22;37913;48.370;10.930;2023-05-10T11:46:42;19.70;99.90
13256;DHT22;37913;48.370;10.930;2023-05-10T11:49:10;19.80;99.90
13256;DHT22;37913;48.370;10.930;2023-05-10T11:51:38;19.90;99.90
13256;DHT22;37913;48.370;10.930;2023-05-10T11:54:08;19.50;99.90
13256;DHT22;37913;48.370;10.930;2023-05-10T11:56:37;19.10;99.90
13256;DHT22;37913;48.370;10.930;2023-05-10T11:59:06;19.10;99.90
13256;DHT22;37913;48.370;10.930;2023-05-10T12:01:34;18.60;99.90
13256;DHT22;37913;48.370;10.930;2023-05-10T12:04:02;18.60;99.90
13256;DHT22;37913;48.370;10.930;2023-05-10T12:06:30;19.00;99.90
13256;DHT22;37913;48.370;10.930;2023-05-10T12:08:57;19.20;99.90
13256;DHT22;37913;48.370;10.930;2023-05-10T12:11:25;19.70;99.90
13256;DHT22;37913;48.370;10.930;2023-05-10T12:13:55;20.00;99.90
13256;DHT22;37913;48.370;10.930;2023-05-10T12:16:24;20.00;99.90
13256;DHT22;37913;48.370;10.930;2023-05-10T12:18:57;20.00;99.90
13256;DHT22;37913;48.370;10.930;2023-05-10T12:21:24;19.50;99.90
13256;DHT22;37913;48.370;10.930;2023-05-10T12:23:53;18.70;99.90
13256;DHT22;37913;48.370;10.930;2023-05-10T12:26:21;17.70;99.90
13256;DHT22;37913;48.370;10.930;2023-05-10T12:28:48;16.60;99.90
13256;DHT22;37913;48.370;10.930;2023-05-10T12:31:17;15.90;99.90
13256;DHT22;37913;48.370;10.930;2023-05-10T12:33:44;15.70;99.90
13256;DHT22;37913;48.370;10.930;2023-05-10T12:36:15;15.70;99.90
13256;DHT22;37913;48.370;10.930;2023-05-10T12:38:44;15.70;99.90
13256;DHT22;37913;48.370;10.930;2023-05-10T12:41:14;15.80;99.90
13256;DHT22;37913;48.370;10.930;2023-05-10T12:43:41;15.90;99.90
13256;DHT22;37913;48.370;10.930;2023-05-10T12:46:09;16.10;99.90
13256;DHT22;37913;48.370;10.930;2023-05-10T12:48:40;16.30;99.90
13256;DHT22;37913;48.370;10.930;2023-05-10T12:51:08;16.70;99.90
13256;DHT22;37913;48.370;10.930;2023-05-10T12:53:37;16.90;99.90
13256;DHT22;37913;48.370;10.930;2023-05-10T12:56:05;17.00;99.90
13256;DHT22;37913;48.370;10.930;2023-05-10T12:58:32;16.90;99.90
13256;DHT22;37913;48.370;10.930;2023-05-10T13:00:59;17.00;99.90
13256;DHT22;37913;48.370;10.930;2023-05-10T13:03:26;16.90;99.90
13256;DHT22;37913;48.370;10.930;2023-05-10T13:05:54;16.70;99.90
13256;DHT22;37913;48.370;10.930;2023-05-10T13:08:21;16.40;99.90
13256;DHT22;37913;48.370;10.930;2023-05-10T13:10:48;16.20;99.90
13256;DHT22;37913;48.370;10.930;2023-05-10T13:13:15;15.90;99.90
13256;DHT22;37913;48.370;10.930;2023-05-10T13:15:43;15.70;99.90
13256;DHT22;37913;48.370;10.930;2023-05-10T13:18:10;15.60;99.90
13256;DHT22;37913;48.370;10.930;2023-05-10T13:20:37;15.60;99.90
13256;DHT22;37913;48.370;10.930;2023-05-10T13:23:06;15.40;99.90
13256;DHT22;37913;48.370;10.930;2023-05-10T13:25:33;15.50;99.90
13256;DHT22;37913;48.370;10.930;2023-05-10T13:28:00;15.40;99.90
13256;DHT22;37913;48.370;10.930;2023-05-10T13:30:27;15.10;99.90
13256;DHT22;37913;48.370;10.930;2023-05-10T13:32:56;14.90;99.90
13256;DHT22;37913;48.370;10.930;2023-05-10T13:35:23;14.70;99.90
13256;DHT22;37913;48.370;10.930;2023-05-10T13:37:50;14.50;99.90
13256;DHT22;37913;48.370;10.930;2023-05-10T13:40:20;14.60;99.90
13256;DHT22;37913;48.370;10.930;2023-05-10T13:42:49;14.50;99.90
13256;DHT22;37913;48.370;10.930;2023-05-10T13:45:17;14.80;99.90
13256;DHT22;37913;48.370;10.930;2023-05-10T13:47:44;14.80;99.90
13256;DHT22;37913;48.370;10.930;2023-05-10T13:50:11;15.10;99.90
13256;DHT22;37913;48.370;10.930;2023-05-10T13:52:38;15.30;99.90
13256;DHT22;37913;48.370;10.930;2023-05-10T13:55:05;15.40;99.90
13256;DHT22;37913;48.370;10.930;2023-05-10T13:57:35;15.30;99.90
13256;DHT22;37913;48.370;10.930;2023-05-10T14:00:04;15.20;99.90
13256;DHT22;37913;48.370;10.930;2023-05-10T14:02:31;14.90;99.90
13256;DHT22;37913;48.370;10.930;2023-05-10T14:04:58;14.90;99.90
13256;DHT22;37913;48.370;10.930;2023-05-10T14:07:25;14.60;99.90
13256;DHT22;37913;48.370;10.930;2023-05-10T14:09:52;14.20;99.90
13256;DHT22;37913;48.370;10.930;2023-05-10T14:12:20;13.70;99.90
13256;DHT22;37913;48.370;10.930;2023-05-10T14:14:49;12.70;99.90
13256;DHT22;37913;48.370;10.930;2023-05-10T14:17:16;12.40;99.90
13256;DHT22;37913;48.370;10.930;2023-05-10T14:19:43;12.30;99.90
13256;DHT22;37913;48.370;10.930;2023-05-10T14:22:09;12.10;99.90
13256;DHT22;37913;48.370;10.930;2023-05-10T14:24:37;12.10;99.90
13256;DHT22;37913;48.370;10.930;2023-05-10T14:27:04;11.50;99.90
13256;DHT22;37913;48.370;10.930;2023-05-10T14:29:31;11.00;99.90
13256;DHT22;37913;48.370;10.930;2023-05-10T14:31:59;10.90;99.90
13256;DHT22;37913;48.370;10.930;2023-05-10T14:34:26;11.00;99.90
13256;DHT22;37913;48.370;10.930;2023-05-10T14:36:53;10.90;99.90
13256;DHT22;37913;48.370;10.930;2023-05-10T14:39:20;11.20;99.90
13256;DHT22;37913;48.370;10.930;2023-05-10T14:41:48;11.10;99.90
13256;DHT22;37913;48.370;10.930;2023-05-10T14:44:16;11.10;99.90
13256;DHT22;37913;48.370;10.930;2023-05-10T14:46:44;11.10;99.90
13256;DHT22;37913;48.370;10.930;2023-05-10T14:49:12;11.30;99.90
13256;DHT22;37913;48.370;10.930;2023-05-10T14:51:39;11.40;99.90
13256;DHT22;37913;48.370;10.930;2023-05-10T14:54:06;11.50;99.90
13256;DHT22;37913;48.370;10.930;2023-05-10T14:56:33;11.50;99.90
13256;DHT22;37913;48.370;10.930;2023-05-10T14:59:00;11.40;99.90
13256;DHT22;37913;48.370;10.930;2023-05-10T15:01:27;11.40;99.90
13256;DHT22;37913;48.370;10.930;2023-05-10T15:03:56;11.40;99.90
13256;DHT22;37913;48.370;10.930;2023-05-10T15:06:32;11.50;99.90
13256;DHT22;37913;48.370;10.930;2023-05-10T15:09:01;11.60;99.90
13256;DHT22;37913;48.370;10.930;2023-05-10T15:11:37;11.70;99.90
13256;DHT22;37913;48.370;10.930;2023-05-10T15:14:10;11.80;99.90
13256;DHT22;37913;48.370;10.930;2023-05-10T15:16:37;11.80;99.90
13256;DHT22;37913;48.370;10.930;2023-05-10T15:19:06;11.90;99.90
13256;DHT22;37913;48.370;10.930;2023-05-10T15:21:34;12.00;99.90
13256;DHT22;37913;48.370;10.930;2023-05-10T15:24:06;12.00;99.90
13256;DHT22;37913;48.370;10.930;2023-05-10T15:26:36;12.00;99.90
13256;DHT22;37913;48.370;10.930;2023-05-10T15:29:04;12.00;99.90
13256;DHT22;37913;48.370;10.930;2023-05-10T15:31:31;12.00;99.90
13256;DHT22;37913;48.370;10.930;2023-05-10T15:34:00;11.90;99.90